Time;durP1;ratioP1;P1;durP2;ratioP2;P2;SDS_P1;SDS_P2;PMS_P1;PMS_P2;Temp;Humidity;BMP_temperature;BMP_pressure;BME280_temperature;BME280_humidity;BME280_pressure;Samples;Min_cycle;Max_cycle;Signal;HPM_P1;HPM_P2
2024/01/06 00:02:29;;;;;;;;;;;17.50;71.90;;;;;;7315774;19;9308;-56
2024/01/06 00:04:58;;;;;;;;;;;17.50;71.70;;;;;;7317676;19;9421;-56
2024/01/06 00:07:30;;;;;;;;;;;17.60;71.70;;;;;;7316185;19;9447;-56
2024/01/06 00:09:59;;;;;;;;;;;17.70;71.70;;;;;;7316610;19;10600;-56
2024/01/06 00:12:28;;;;;;;;;;;17.70;71.60;;;;;;7316610;19;9473;-56
2024/01/06 00:14:57;;;;;;;;;;;17.80;71.50;;;;;;7317359;19;9452;-56
2024/01/06 00:17:26;;;;;;;;;;;17.80;71.40;;;;;;7315434;19;9536;-56
2024/01/06 00:19:55;;;;;;;;;;;17.90;71.30;;;;;;7314846;19;9530;-56
2024/01/06 00:22:24;;;;;;;;;;;17.90;71.20;;;;;;7315336;19;9512;-56
2024/01/06 00:24:55;;;;;;;;;;;17.90;71.10;;;;;;7316232;19;9415;-56
2024/01/06 00:27:24;;;;;;;;;;;17.90;71.00;;;;;;7320336;19;10324;-56
2024/01/06 00:29:53;;;;;;;;;;;17.90;71.00;;;;;;7324156;19;9315;-56
2024/01/06 00:32:23;;;;;;;;;;;17.90;71.00;;;;;;7320491;19;9507;-56
2024/01/06 00:34:52;;;;;;;;;;;17.90;71.00;;;;;;7321474;19;11782;-56
2024/01/06 00:37:21;;;;;;;;;;;17.90;70.90;;;;;;7323047;19;9221;-56
2024/01/06 00:39:50;;;;;;;;;;;17.80;70.90;;;;;;7322566;19;9488;-56
2024/01/06 00:42:21;;;;;;;;;;;17.80;70.90;;;;;;7321887;19;9174;-56
2024/01/06 00:44:50;;;;;;;;;;;17.80;71.00;;;;;;7323276;19;9562;-56
2024/01/06 00:47:22;;;;;;;;;;;17.70;70.90;;;;;;7322873;19;9214;-56
2024/01/06 00:49:52;;;;;;;;;;;17.70;71.10;;;;;;7322756;19;9248;-56
2024/01/06 00:52:21;;;;;;;;;;;17.60;71.00;;;;;;7321981;19;9465;-56
2024/01/06 00:54:50;;;;;;;;;;;17.70;71.10;;;;;;7321169;19;9462;-56
2024/01/06 00:57:24;;;;;;;;;;;17.60;71.10;;;;;;7324195;19;9444;-55
2024/01/06 00:59:53;;;;;;;;;;;17.60;71.20;;;;;;7321844;19;10487;-56
2024/01/06 01:02:42;;;;;;;;;;;17.50;71.20;;;;;;7319596;19;10684;-56
2024/01/06 01:05:11;;;;;;;;;;;17.50;71.30;;;;;;7323192;19;9489;-56
2024/01/06 01:07:40;;;;;;;;;;;17.40;71.30;;;;;;7322065;19;9245;-56
2024/01/06 01:10:10;;;;;;;;;;;17.40;71.40;;;;;;7323084;19;9281;-56
2024/01/06 01:12:41;;;;;;;;;;;17.30;71.50;;;;;;7320920;19;9490;-56
2024/01/06 01:15:30;;;;;;;;;;;17.30;71.50;;;;;;7321529;19;9272;-56
2024/01/06 01:18:00;;;;;;;;;;;17.30;71.50;;;;;;7323070;19;9403;-56
2024/01/06 01:20:29;;;;;;;;;;;17.20;71.60;;;;;;7321117;19;9268;-56
2024/01/06 01:22:58;;;;;;;;;;;17.20;71.60;;;;;;7322637;19;9248;-56
2024/01/06 01:25:27;;;;;;;;;;;17.20;72.20;;;;;;7321088;19;9422;-56
2024/01/06 01:27:59;;;;;;;;;;;17.10;71.70;;;;;;7321584;19;9475;-56
2024/01/06 01:30:28;;;;;;;;;;;17.10;71.70;;;;;;7322073;19;9648;-56
2024/01/06 01:32:58;;;;;;;;;;;17.10;71.80;;;;;;7321721;19;9203;-56
2024/01/06 01:35:27;;;;;;;;;;;17.10;71.90;;;;;;7321511;19;9260;-56
2024/01/06 01:37:56;;;;;;;;;;;17.00;71.90;;;;;;7320678;19;9335;-56
2024/01/06 01:40:25;;;;;;;;;;;17.00;72.50;;;;;;7320947;19;9233;-56
2024/01/06 01:42:54;;;;;;;;;;;17.00;72.00;;;;;;7321771;19;9269;-56
2024/01/06 01:45:26;;;;;;;;;;;17.00;72.60;;;;;;7320544;19;9710;-56
2024/01/06 01:47:55;;;;;;;;;;;16.90;72.10;;;;;;7321398;19;9463;-56
2024/01/06 01:50:27;;;;;;;;;;;16.90;72.10;;;;;;7322495;19;9599;-56
2024/01/06 01:52:57;;;;;;;;;;;16.90;72.10;;;;;;7319889;19;9647;-56
2024/01/06 01:55:26;;;;;;;;;;;17.00;72.20;;;;;;7322572;19;9670;-56
2024/01/06 01:57:56;;;;;;;;;;;17.00;72.10;;;;;;7321255;19;9243;-56
2024/01/06 02:00:27;;;;;;;;;;;17.00;72.00;;;;;;7320739;19;9282;-56
2024/01/06 02:02:56;;;;;;;;;;;17.00;71.90;;;;;;7319658;19;10104;-56
2024/01/06 02:05:25;;;;;;;;;;;17.10;71.80;;;;;;7321797;19;9370;-56
2024/01/06 02:07:54;;;;;;;;;;;17.20;71.70;;;;;;7319848;19;9297;-56
2024/01/06 02:10:23;;;;;;;;;;;17.20;71.60;;;;;;7321541;19;9494;-56
2024/01/06 02:12:52;;;;;;;;;;;17.30;71.50;;;;;;7320334;19;10421;-56
2024/01/06 02:15:22;;;;;;;;;;;17.40;72.00;;;;;;7320930;19;10620;-56
2024/01/06 02:17:53;;;;;;;;;;;17.40;71.30;;;;;;7319952;19;9043;-56
2024/01/06 02:20:24;;;;;;;;;;;17.50;71.20;;;;;;7319592;19;9596;-56
2024/01/06 02:22:56;;;;;;;;;;;17.60;71.10;;;;;;7321604;19;9472;-56
2024/01/06 02:25:45;;;;;;;;;;;17.60;70.90;;;;;;7316845;19;10445;-56
2024/01/06 02:28:14;;;;;;;;;;;17.60;70.80;;;;;;7319960;19;9456;-55
2024/01/06 02:30:43;;;;;;;;;;;17.60;70.80;;;;;;7321146;19;9232;-56
2024/01/06 02:33:13;;;;;;;;;;;17.70;70.70;;;;;;7319552;19;10898;-56
2024/01/06 02:35:42;;;;;;;;;;;17.70;70.70;;;;;;7319434;19;9712;-56
2024/01/06 02:38:14;;;;;;;;;;;17.80;70.70;;;;;;7319872;19;9535;-56
2024/01/06 02:40:42;;;;;;;;;;;17.80;70.60;;;;;;7319322;19;9611;-56
2024/01/06 02:43:11;;;;;;;;;;;17.80;70.50;;;;;;7319978;19;9407;-56
2024/01/06 02:45:40;;;;;;;;;;;17.80;70.40;;;;;;7320053;19;9571;-56
2024/01/06 02:48:09;;;;;;;;;;;17.90;70.40;;;;;;7319490;19;9453;-56
2024/01/06 02:50:38;;;;;;;;;;;17.90;70.30;;;;;;7319459;19;9676;-56
2024/01/06 02:53:09;;;;;;;;;;;17.90;70.30;;;;;;7319849;19;9219;-56
2024/01/06 02:55:41;;;;;;;;;;;17.90;70.20;;;;;;7318988;19;9206;-56
2024/01/06 02:58:10;;;;;;;;;;;17.90;70.20;;;;;;7318385;19;9493;-56
2024/01/06 03:00:38;;;;;;;;;;;17.90;70.70;;;;;;7319982;19;9524;-56
2024/01/06 03:03:08;;;;;;;;;;;17.80;70.00;;;;;;7318445;19;9521;-56
2024/01/06 03:05:37;;;;;;;;;;;17.80;70.10;;;;;;7319946;19;11317;-56
2024/01/06 03:08:07;;;;;;;;;;;17.70;70.10;;;;;;7317481;19;9319;-56
2024/01/06 03:10:36;;;;;;;;;;;17.70;70.10;;;;;;7319398;19;9623;-56
2024/01/06 03:13:07;;;;;;;;;;;17.70;70.20;;;;;;7318569;19;9387;-56
2024/01/06 03:15:36;;;;;;;;;;;17.60;70.20;;;;;;7319530;19;9533;-56
2024/01/06 03:18:06;;;;;;;;;;;17.60;70.30;;;;;;7318705;19;9753;-56
2024/01/06 03:20:35;;;;;;;;;;;17.60;70.30;;;;;;7318435;19;9529;-56
2024/01/06 03:23:04;;;;;;;;;;;17.60;70.40;;;;;;7319363;19;9184;-56
2024/01/06 03:25:33;;;;;;;;;;;17.50;70.30;;;;;;7317270;19;9234;-56
2024/01/06 03:28:01;;;;;;;;;;;17.40;70.50;;;;;;7318540;19;9489;-56
2024/01/06 03:30:33;;;;;;;;;;;17.40;70.50;;;;;;7317603;19;9299;-56
2024/01/06 03:33:02;;;;;;;;;;;17.40;70.60;;;;;;7318808;19;9360;-56
2024/01/06 03:35:31;;;;;;;;;;;17.30;70.60;;;;;;7317109;19;9610;-56
2024/01/06 03:38:00;;;;;;;;;;;17.30;70.70;;;;;;7317376;19;9726;-56
2024/01/06 03:40:29;;;;;;;;;;;17.30;70.80;;;;;;7316709;19;9220;-56
2024/01/06 03:43:18;;;;;;;;;;;17.20;70.80;;;;;;7315836;19;9465;-56
2024/01/06 03:45:50;;;;;;;;;;;17.20;70.90;;;;;;7314465;19;9570;-56
2024/01/06 03:48:18;;;;;;;;;;;17.10;70.90;;;;;;7316334;19;9257;-56
2024/01/06 03:50:47;;;;;;;;;;;17.10;71.10;;;;;;7318201;19;9477;-56
2024/01/06 03:53:16;;;;;;;;;;;17.10;71.00;;;;;;7316366;19;9261;-56
2024/01/06 03:55:45;;;;;;;;;;;17.10;71.30;;;;;;7317911;19;10326;-56
2024/01/06 03:58:14;;;;;;;;;;;17.00;71.10;;;;;;7313257;19;9520;-56
2024/01/06 04:00:43;;;;;;;;;;;17.00;71.10;;;;;;7317913;19;9253;-56
2024/01/06 04:03:15;;;;;;;;;;;17.00;71.20;;;;;;7322212;19;9384;-56
2024/01/06 04:05:43;;;;;;;;;;;17.00;71.30;;;;;;7323871;19;9280;-56
2024/01/06 04:08:12;;;;;;;;;;;17.00;71.20;;;;;;7321666;19;9588;-56
2024/01/06 04:10:42;;;;;;;;;;;17.00;71.10;;;;;;7323694;19;9325;-56
2024/01/06 04:13:11;;;;;;;;;;;17.10;71.10;;;;;;7322734;19;9650;-56
2024/01/06 04:15:41;;;;;;;;;;;17.10;71.00;;;;;;7322765;19;9221;-55
2024/01/06 04:18:09;;;;;;;;;;;17.20;70.90;;;;;;7321052;19;9612;-56
2024/01/06 04:20:41;;;;;;;;;;;17.20;70.80;;;;;;7323409;19;9542;-56
2024/01/06 04:23:30;;;;;;;;;;;17.30;70.80;;;;;;7322040;19;9241;-57
2024/01/06 04:25:59;;;;;;;;;;;17.30;70.70;;;;;;7322992;19;9355;-56
2024/01/06 04:28:28;;;;;;;;;;;17.40;70.60;;;;;;7323795;19;9303;-56
2024/01/06 04:30:57;;;;;;;;;;;17.50;70.50;;;;;;7323820;19;9489;-56
2024/01/06 04:33:26;;;;;;;;;;;17.50;70.30;;;;;;7324019;19;9507;-56
2024/01/06 04:35:58;;;;;;;;;;;17.60;70.20;;;;;;7323253;19;10375;-56
2024/01/06 04:38:27;;;;;;;;;;;17.60;70.20;;;;;;7323710;19;9308;-56
2024/01/06 04:40:56;;;;;;;;;;;17.60;70.00;;;;;;7324603;19;9458;-56
2024/01/06 04:43:25;;;;;;;;;;;17.60;70.00;;;;;;7322522;19;9462;-56
2024/01/06 04:45:54;;;;;;;;;;;17.60;69.90;;;;;;7322933;19;9473;-56
2024/01/06 04:48:23;;;;;;;;;;;17.70;70.00;;;;;;7321760;19;9521;-56
2024/01/06 04:50:52;;;;;;;;;;;17.70;70.00;;;;;;7323182;19;10954;-56
2024/01/06 04:53:23;;;;;;;;;;;17.80;70.00;;;;;;7322107;19;9138;-56
2024/01/06 04:55:52;;;;;;;;;;;17.80;69.90;;;;;;7323750;19;9397;-56
2024/01/06 04:58:21;;;;;;;;;;;17.90;69.90;;;;;;7321885;19;9510;-56
2024/01/06 05:00:52;;;;;;;;;;;17.90;69.80;;;;;;7322847;19;9256;-56
2024/01/06 05:03:21;;;;;;;;;;;17.90;69.70;;;;;;7321677;19;9557;-56
2024/01/06 05:05:50;;;;;;;;;;;17.90;69.70;;;;;;7322513;19;9480;-56
2024/01/06 05:08:45;;;;;;;;;;;17.90;70.10;;;;;;7320338;19;9529;-57
2024/01/06 05:11:14;;;;;;;;;;;17.90;69.50;;;;;;7321404;19;9253;-56
2024/01/06 05:13:43;;;;;;;;;;;17.90;69.40;;;;;;7322022;19;9465;-56
2024/01/06 05:16:12;;;;;;;;;;;17.90;69.40;;;;;;7321310;19;9586;-56
2024/01/06 05:18:41;;;;;;;;;;;17.80;69.40;;;;;;7321597;19;9490;-56
2024/01/06 05:21:10;;;;;;;;;;;17.80;69.30;;;;;;7322043;19;9478;-56
2024/01/06 05:23:42;;;;;;;;;;;17.80;69.30;;;;;;7323076;19;9458;-56
2024/01/06 05:26:11;;;;;;;;;;;17.70;69.40;;;;;;7321347;19;9401;-56
2024/01/06 05:28:40;;;;;;;;;;;17.80;69.40;;;;;;7321393;19;9482;-56
2024/01/06 05:31:09;;;;;;;;;;;17.70;69.40;;;;;;7322435;19;9250;-56
2024/01/06 05:33:38;;;;;;;;;;;17.60;69.60;;;;;;7322280;19;9197;-56
2024/01/06 05:36:08;;;;;;;;;;;17.60;69.60;;;;;;7322706;19;9309;-56
2024/01/06 05:38:37;;;;;;;;;;;17.60;69.60;;;;;;7320310;19;9647;-56
2024/01/06 05:41:08;;;;;;;;;;;17.50;69.60;;;;;;7321993;19;10703;-56
2024/01/06 05:43:38;;;;;;;;;;;17.50;69.60;;;;;;7318293;19;10591;-56
2024/01/06 05:46:07;;;;;;;;;;;17.50;69.70;;;;;;7320400;19;9284;-56
2024/01/06 05:48:36;;;;;;;;;;;17.40;69.80;;;;;;7320217;19;9568;-56
2024/01/06 05:51:06;;;;;;;;;;;17.30;70.00;;;;;;7320300;19;9476;-56
2024/01/06 05:53:35;;;;;;;;;;;17.30;69.90;;;;;;7319406;19;9242;-56
2024/01/06 05:56:04;;;;;;;;;;;17.30;70.00;;;;;;7319844;19;9332;-56
2024/01/06 05:58:36;;;;;;;;;;;17.20;70.10;;;;;;7317995;19;10606;-56
2024/01/06 06:01:05;;;;;;;;;;;17.20;70.10;;;;;;7319364;19;10355;-56
2024/01/06 06:03:35;;;;;;;;;;;17.10;70.20;;;;;;7319959;19;9518;-56
2024/01/06 06:06:04;;;;;;;;;;;17.10;70.20;;;;;;7319223;19;9274;-56
2024/01/06 06:08:33;;;;;;;;;;;17.10;70.20;;;;;;7319705;19;9620;-56
2024/01/06 06:11:10;;;;;;;;;;;17.10;70.40;;;;;;7318505;19;9641;-56
2024/01/06 06:13:43;;;;;;;;;;;17.00;70.40;;;;;;7320132;19;9416;-56
2024/01/06 06:16:13;;;;;;;;;;;17.00;70.50;;;;;;7320426;19;9608;-56
2024/01/06 06:18:42;;;;;;;;;;;17.00;70.60;;;;;;7317528;19;9635;-56
2024/01/06 06:21:11;;;;;;;;;;;17.00;70.60;;;;;;7319574;19;9621;-56
2024/01/06 06:23:40;;;;;;;;;;;17.00;70.50;;;;;;7316245;19;9498;-56
2024/01/06 06:26:11;;;;;;;;;;;17.00;70.40;;;;;;7320259;19;10385;-56
2024/01/06 06:28:43;;;;;;;;;;;17.10;70.40;;;;;;7318722;19;10624;-56
2024/01/06 06:31:12;;;;;;;;;;;17.10;70.30;;;;;;7318559;19;9464;-56
2024/01/06 06:33:42;;;;;;;;;;;17.20;70.30;;;;;;7319178;19;9582;-56
2024/01/06 06:36:13;;;;;;;;;;;17.20;70.10;;;;;;7319744;19;9457;-56
2024/01/06 06:38:42;;;;;;;;;;;17.30;70.10;;;;;;7317913;19;9285;-56
2024/01/06 06:41:11;;;;;;;;;;;17.40;70.10;;;;;;7321213;19;9197;-56
2024/01/06 06:43:43;;;;;;;;;;;17.40;70.00;;;;;;7320138;19;9181;-56
2024/01/06 06:46:11;;;;;;;;;;;17.40;69.80;;;;;;7320145;19;9317;-56
2024/01/06 06:48:40;;;;;;;;;;;17.50;69.70;;;;;;7319338;19;9618;-56
2024/01/06 06:51:10;;;;;;;;;;;17.50;69.60;;;;;;7319553;19;9409;-56
2024/01/06 06:53:39;;;;;;;;;;;17.50;69.60;;;;;;7319443;19;9279;-56
2024/01/06 06:56:09;;;;;;;;;;;17.50;69.50;;;;;;7320255;19;9462;-56
2024/01/06 06:58:38;;;;;;;;;;;17.60;69.60;;;;;;7319561;19;9483;-56
2024/01/06 07:01:09;;;;;;;;;;;17.60;69.50;;;;;;7319343;19;9614;-56
2024/01/06 07:03:38;;;;;;;;;;;17.60;69.40;;;;;;7319513;19;9129;-56
2024/01/06 07:06:07;;;;;;;;;;;17.70;69.40;;;;;;7318619;19;9492;-56
2024/01/06 07:08:38;;;;;;;;;;;17.70;69.40;;;;;;7318643;19;9665;-56
2024/01/06 07:11:07;;;;;;;;;;;17.80;69.40;;;;;;7318531;19;9585;-56
2024/01/06 07:13:36;;;;;;;;;;;17.90;69.40;;;;;;7318999;19;9461;-56
2024/01/06 07:16:05;;;;;;;;;;;17.90;69.20;;;;;;7318376;19;9170;-56
2024/01/06 07:18:37;;;;;;;;;;;17.90;69.10;;;;;;7318459;19;9621;-56
2024/01/06 07:21:08;;;;;;;;;;;18.00;69.10;;;;;;7317415;19;9606;-56
2024/01/06 07:23:37;;;;;;;;;;;18.00;69.00;;;;;;7318694;19;9252;-56
2024/01/06 07:26:07;;;;;;;;;;;18.00;68.90;;;;;;7316441;19;9550;-56
2024/01/06 07:28:37;;;;;;;;;;;18.00;68.90;;;;;;7318544;19;9437;-56
2024/01/06 07:31:07;;;;;;;;;;;18.00;68.80;;;;;;7318298;19;9238;-56
2024/01/06 07:33:39;;;;;;;;;;;18.00;68.80;;;;;;7318741;19;9198;-56
2024/01/06 07:36:08;;;;;;;;;;;18.00;68.80;;;;;;7323978;19;9264;-56
2024/01/06 07:38:38;;;;;;;;;;;17.90;68.70;;;;;;7323766;19;9468;-56
2024/01/06 07:41:07;;;;;;;;;;;17.90;68.70;;;;;;7325300;19;9267;-56
2024/01/06 07:43:36;;;;;;;;;;;17.90;68.80;;;;;;7321891;19;9599;-56
2024/01/06 07:46:25;;;;;;;;;;;17.80;68.70;;;;;;7322809;19;9178;-56
2024/01/06 07:48:56;;;;;;;;;;;17.80;68.60;;;;;;7323546;19;9409;-56
2024/01/06 07:51:25;;;;;;;;;;;17.70;68.70;;;;;;7324661;19;9498;-56
2024/01/06 07:53:54;;;;;;;;;;;17.70;68.80;;;;;;7324477;19;9426;-56
2024/01/06 07:56:24;;;;;;;;;;;17.60;68.80;;;;;;7322685;19;9336;-56
2024/01/06 07:58:53;;;;;;;;;;;17.60;68.90;;;;;;7323718;19;9600;-56
2024/01/06 08:01:23;;;;;;;;;;;17.60;68.90;;;;;;7323777;19;9233;-56
2024/01/06 08:03:52;;;;;;;;;;;17.50;69.00;;;;;;7324266;19;9193;-56
2024/01/06 08:06:25;;;;;;;;;;;17.50;69.00;;;;;;7322450;19;9519;-56
2024/01/06 08:08:54;;;;;;;;;;;17.50;69.10;;;;;;7323055;19;9667;-56
2024/01/06 08:11:23;;;;;;;;;;;17.40;69.30;;;;;;7323502;19;9919;-56
2024/01/06 08:13:52;;;;;;;;;;;17.30;69.30;;;;;;7323716;19;9591;-56
2024/01/06 08:16:22;;;;;;;;;;;17.30;69.40;;;;;;7321762;19;9445;-56
2024/01/06 08:18:51;;;;;;;;;;;17.30;70.00;;;;;;7322552;19;10301;-55
2024/01/06 08:21:19;;;;;;;;;;;17.20;69.40;;;;;;7323412;19;9550;-56
2024/01/06 08:23:51;;;;;;;;;;;17.20;69.50;;;;;;7324257;19;9223;-56
2024/01/06 08:26:20;;;;;;;;;;;17.10;69.50;;;;;;7323030;19;9518;-56
2024/01/06 08:28:49;;;;;;;;;;;17.10;69.60;;;;;;7324034;19;9434;-56
2024/01/06 08:31:18;;;;;;;;;;;17.10;69.80;;;;;;7323188;19;9451;-56
2024/01/06 08:33:47;;;;;;;;;;;17.00;69.70;;;;;;7322632;19;9696;-56
2024/01/06 08:36:16;;;;;;;;;;;17.00;69.70;;;;;;7323965;19;9464;-56
2024/01/06 08:38:45;;;;;;;;;;;17.00;69.80;;;;;;7322329;19;9466;-56
2024/01/06 08:41:17;;;;;;;;;;;17.00;69.80;;;;;;7323439;19;9560;-56
2024/01/06 08:43:46;;;;;;;;;;;17.00;69.70;;;;;;7322290;19;9277;-55
2024/01/06 08:46:15;;;;;;;;;;;17.10;69.70;;;;;;7321660;19;9377;-56
2024/01/06 08:48:44;;;;;;;;;;;17.10;69.60;;;;;;7322482;19;9401;-56
2024/01/06 08:51:13;;;;;;;;;;;17.10;70.10;;;;;;7322620;19;9561;-56
2024/01/06 08:53:41;;;;;;;;;;;17.10;69.40;;;;;;7321740;19;9457;-56
2024/01/06 08:56:11;;;;;;;;;;;17.20;69.40;;;;;;7322415;19;10670;-56
2024/01/06 08:58:42;;;;;;;;;;;17.20;69.40;;;;;;7321952;19;9467;-56
2024/01/06 09:01:13;;;;;;;;;;;17.20;70.00;;;;;;7321872;19;9294;-56
2024/01/06 09:03:42;;;;;;;;;;;17.30;69.30;;;;;;7323023;19;9715;-55
2024/01/06 09:06:11;;;;;;;;;;;17.30;69.40;;;;;;7321399;19;9499;-56
2024/01/06 09:08:40;;;;;;;;;;;17.40;69.30;;;;;;7322395;19;9706;-57
2024/01/06 09:11:09;;;;;;;;;;;17.40;69.20;;;;;;7322234;19;10611;-56
2024/01/06 09:13:38;;;;;;;;;;;17.50;69.10;;;;;;7321934;19;9422;-56
2024/01/06 09:16:10;;;;;;;;;;;17.50;69.10;;;;;;7321229;19;9473;-56
2024/01/06 09:18:39;;;;;;;;;;;17.60;69.10;;;;;;7321877;19;9237;-56
2024/01/06 09:21:08;;;;;;;;;;;17.60;68.90;;;;;;7320286;19;9280;-56
2024/01/06 09:23:37;;;;;;;;;;;17.70;69.00;;;;;;7321576;19;9450;-56
2024/01/06 09:26:06;;;;;;;;;;;17.80;68.80;;;;;;7320648;19;9473;-56
2024/01/06 09:28:35;;;;;;;;;;;17.80;68.70;;;;;;7320717;19;9235;-56
2024/01/06 09:31:04;;;;;;;;;;;17.90;68.70;;;;;;7321366;19;9236;-60
2024/01/06 09:33:36;;;;;;;;;;;17.90;68.60;;;;;;7322092;19;9503;-56
2024/01/06 09:36:05;;;;;;;;;;;17.90;68.50;;;;;;7321739;19;9370;-56
2024/01/06 09:38:34;;;;;;;;;;;17.90;68.50;;;;;;7320389;19;9211;-56
2024/01/06 09:41:24;;;;;;;;;;;17.90;68.40;;;;;;7318757;19;9496;-56
2024/01/06 09:43:53;;;;;;;;;;;18.00;68.50;;;;;;7320494;19;9666;-56
2024/01/06 09:46:29;;;;;;;;;;;17.90;68.30;;;;;;7320890;19;9413;-56
2024/01/06 09:49:01;;;;;;;;;;;17.90;68.30;;;;;;7320871;19;9436;-56
2024/01/06 09:51:31;;;;;;;;;;;17.90;68.30;;;;;;7320787;19;9610;-56
2024/01/06 09:54:01;;;;;;;;;;;17.90;68.20;;;;;;7321471;19;9398;-56
2024/01/06 09:56:31;;;;;;;;;;;17.90;68.20;;;;;;7320527;19;9333;-56
2024/01/06 09:59:00;;;;;;;;;;;17.80;68.20;;;;;;7317901;19;10394;-56
2024/01/06 10:01:29;;;;;;;;;;;17.80;68.20;;;;;;7320578;19;9308;-55
2024/01/06 10:04:01;;;;;;;;;;;17.80;68.20;;;;;;7321006;19;9255;-56
2024/01/06 10:06:30;;;;;;;;;;;17.70;68.30;;;;;;7320132;19;9568;-56
2024/01/06 10:08:59;;;;;;;;;;;17.70;68.30;;;;;;7320328;19;9615;-56
2024/01/06 10:11:28;;;;;;;;;;;17.60;68.40;;;;;;7319946;19;9653;-56
2024/01/06 10:13:57;;;;;;;;;;;17.60;68.40;;;;;;7320539;19;9422;-56
2024/01/06 10:16:26;;;;;;;;;;;17.50;68.50;;;;;;7318306;19;9509;-56
2024/01/06 10:18:56;;;;;;;;;;;17.50;68.50;;;;;;7320743;19;10899;-56
2024/01/06 10:21:28;;;;;;;;;;;17.40;68.60;;;;;;7320027;19;9478;-56
2024/01/06 10:23:57;;;;;;;;;;;17.40;68.90;;;;;;7319855;19;9449;-56
2024/01/06 10:26:26;;;;;;;;;;;17.40;68.70;;;;;;7319642;19;9185;-56
2024/01/06 10:28:55;;;;;;;;;;;17.30;68.80;;;;;;7320157;19;9256;-56
2024/01/06 10:31:24;;;;;;;;;;;17.30;68.90;;;;;;7320532;19;10790;-56
2024/01/06 10:33:53;;;;;;;;;;;17.30;69.00;;;;;;7319265;19;9322;-56
2024/01/06 10:36:22;;;;;;;;;;;17.20;69.10;;;;;;7320806;19;9259;-56
2024/01/06 10:38:55;;;;;;;;;;;17.20;69.10;;;;;;7318569;19;9417;-56
2024/01/06 10:41:26;;;;;;;;;;;17.10;69.00;;;;;;7319952;19;9481;-55
2024/01/06 10:43:58;;;;;;;;;;;17.10;69.10;;;;;;7319621;19;10031;-56
2024/01/06 10:46:28;;;;;;;;;;;17.10;69.20;;;;;;7318774;19;9233;-56
2024/01/06 10:49:00;;;;;;;;;;;17.00;69.30;;;;;;7318246;19;10378;-56
2024/01/06 10:51:30;;;;;;;;;;;17.00;69.40;;;;;;7318987;19;9445;-56
2024/01/06 10:54:04;;;;;;;;;;;17.00;69.30;;;;;;7319696;19;9218;-58
2024/01/06 10:56:34;;;;;;;;;;;17.00;69.30;;;;;;7317854;19;9527;-56
2024/01/06 10:59:07;;;;;;;;;;;17.10;69.30;;;;;;7317322;19;8960;-56
2024/01/06 11:01:38;;;;;;;;;;;17.10;69.20;;;;;;7318383;19;9457;-56
2024/01/06 11:04:07;;;;;;;;;;;17.10;69.20;;;;;;7317323;19;9594;-56
2024/01/06 11:06:38;;;;;;;;;;;17.20;69.10;;;;;;7316958;19;11151;-55
2024/01/06 11:09:17;;;;;;;;;;;17.20;69.00;;;;;;7317813;19;9609;-56
2024/01/06 11:11:47;;;;;;;;;;;17.20;69.00;;;;;;7319069;19;10446;-56
2024/01/06 11:14:24;;;;;;;;;;;17.20;68.90;;;;;;7317228;19;9600;-56
2024/01/06 11:16:55;;;;;;;;;;;17.30;69.00;;;;;;7319071;19;9470;-56
2024/01/06 11:19:46;;;;;;;;;;;17.30;69.00;;;;;;7314622;19;10031;-56
2024/01/06 11:22:28;;;;;;;;;;;17.40;69.00;;;;;;7316497;19;9177;-56
2024/01/06 11:25:07;;;;;;;;;;;17.40;68.90;;;;;;7317339;19;9520;-56
2024/01/06 11:27:38;;;;;;;;;;;17.40;68.80;;;;;;7317156;19;9469;-56
2024/01/06 11:30:08;;;;;;;;;;;17.60;68.80;;;;;;7318128;19;9255;-56
2024/01/06 11:33:00;;;;;;;;;;;17.60;68.70;;;;;;7316593;19;10136;-56
2024/01/06 11:35:30;;;;;;;;;;;17.60;68.60;;;;;;7316727;19;9348;-56
2024/01/06 11:38:04;;;;;;;;;;;17.80;68.60;;;;;;7318788;19;9470;-56
2024/01/06 11:40:39;;;;;;;;;;;17.80;68.50;;;;;;7316985;19;9477;-56
2024/01/06 11:43:11;;;;;;;;;;;17.80;68.40;;;;;;7316596;19;10350;-55
2024/01/06 11:45:43;;;;;;;;;;;17.90;68.30;;;;;;7317375;19;9256;-56
2024/01/06 11:48:14;;;;;;;;;;;17.90;68.20;;;;;;7315874;19;10760;-56
2024/01/06 11:50:44;;;;;;;;;;;18.00;68.30;;;;;;7318328;19;9378;-56
2024/01/06 11:53:13;;;;;;;;;;;17.90;68.20;;;;;;7316018;19;9598;-56
2024/01/06 11:55:45;;;;;;;;;;;18.00;68.20;;;;;;7318188;19;9250;-56
2024/01/06 11:58:13;;;;;;;;;;;18.00;68.10;;;;;;7315449;19;8963;-56
2024/01/06 12:00:43;;;;;;;;;;;17.90;68.10;;;;;;7318093;19;9225;-56
2024/01/06 12:03:13;;;;;;;;;;;17.90;68.00;;;;;;7316078;19;9272;-55
2024/01/06 12:05:42;;;;;;;;;;;17.90;68.00;;;;;;7316296;19;9614;-56
2024/01/06 12:08:10;;;;;;;;;;;17.90;68.00;;;;;;7316067;19;9612;-56
2024/01/06 12:10:40;;;;;;;;;;;17.90;67.90;;;;;;7316367;19;9460;-56
2024/01/06 12:13:14;;;;;;;;;;;17.90;68.00;;;;;;7316226;19;9387;-56
2024/01/06 12:15:43;;;;;;;;;;;17.80;67.90;;;;;;7316101;19;9330;-56
2024/01/06 12:18:12;;;;;;;;;;;17.80;67.90;;;;;;7316098;19;11571;-56
2024/01/06 12:20:42;;;;;;;;;;;17.70;68.00;;;;;;7316719;19;9268;-56
2024/01/06 12:23:10;;;;;;;;;;;17.70;68.10;;;;;;7321994;19;9454;-57
2024/01/06 12:25:39;;;;;;;;;;;17.70;68.10;;;;;;7322264;19;9328;-57
2024/01/06 12:28:11;;;;;;;;;;;17.60;68.10;;;;;;7321713;19;9260;-56
2024/01/06 12:30:42;;;;;;;;;;;17.60;68.20;;;;;;7322438;19;9401;-56
2024/01/06 12:33:12;;;;;;;;;;;17.60;68.30;;;;;;7322610;19;10272;-56
2024/01/06 12:35:42;;;;;;;;;;;17.50;68.30;;;;;;7323668;19;9526;-56
2024/01/06 12:38:11;;;;;;;;;;;17.40;68.30;;;;;;7321228;19;9986;-56
2024/01/06 12:40:41;;;;;;;;;;;17.40;68.40;;;;;;7322332;19;9600;-56
2024/01/06 12:43:14;;;;;;;;;;;17.30;68.40;;;;;;7322660;19;9499;-56
2024/01/06 12:45:43;;;;;;;;;;;17.30;68.50;;;;;;7322856;19;9511;-55
2024/01/06 12:48:12;;;;;;;;;;;17.30;68.70;;;;;;7321393;19;9619;-56
2024/01/06 12:50:41;;;;;;;;;;;17.20;68.70;;;;;;7323338;19;9237;-55
2024/01/06 12:53:11;;;;;;;;;;;17.20;68.70;;;;;;7321353;19;9566;-56
2024/01/06 12:55:40;;;;;;;;;;;17.10;68.70;;;;;;7324035;19;9473;-56
2024/01/06 12:58:32;;;;;;;;;;;17.10;68.80;;;;;;7321338;19;9488;-56
2024/01/06 13:01:02;;;;;;;;;;;17.10;68.90;;;;;;7322010;19;9523;-57
2024/01/06 13:03:31;;;;;;;;;;;17.10;69.00;;;;;;7321746;19;9447;-56
2024/01/06 13:06:00;;;;;;;;;;;17.00;68.90;;;;;;7321757;19;9428;-56
2024/01/06 13:08:30;;;;;;;;;;;17.00;68.90;;;;;;7322035;19;9375;-55
2024/01/06 13:10:59;;;;;;;;;;;17.00;68.90;;;;;;7322241;19;9435;-56
2024/01/06 13:13:51;;;;;;;;;;;17.10;68.90;;;;;;7320816;19;9494;-56
2024/01/06 13:16:20;;;;;;;;;;;17.10;68.90;;;;;;7321911;19;9476;-56
2024/01/06 13:18:49;;;;;;;;;;;17.20;68.90;;;;;;7322099;19;9256;-56
2024/01/06 13:21:18;;;;;;;;;;;17.20;68.80;;;;;;7321023;19;9641;-56
2024/01/06 13:23:46;;;;;;;;;;;17.20;68.70;;;;;;7321424;19;9141;-56
2024/01/06 13:26:15;;;;;;;;;;;17.20;68.60;;;;;;7321976;19;9450;-56
2024/01/06 13:28:45;;;;;;;;;;;17.20;68.60;;;;;;7320272;19;9287;-56
2024/01/06 13:31:17;;;;;;;;;;;17.20;68.60;;;;;;7322071;19;9517;-56
2024/01/06 13:33:46;;;;;;;;;;;17.30;68.60;;;;;;7320149;19;9484;-56
2024/01/06 13:36:17;;;;;;;;;;;17.30;68.60;;;;;;7321836;19;9941;-56
2024/01/06 13:38:48;;;;;;;;;;;17.40;68.50;;;;;;7320381;19;9603;-56
2024/01/06 13:41:17;;;;;;;;;;;17.50;68.50;;;;;;7322407;19;9669;-56
2024/01/06 13:43:47;;;;;;;;;;;17.50;68.40;;;;;;7320782;19;9235;-56
2024/01/06 13:46:40;;;;;;;;;;;17.50;68.30;;;;;;7319172;19;9274;-56
2024/01/06 13:49:09;;;;;;;;;;;17.60;68.20;;;;;;7322236;19;9162;-56
2024/01/06 13:51:38;;;;;;;;;;;17.70;68.20;;;;;;7319658;19;9267;-56
2024/01/06 13:54:09;;;;;;;;;;;17.70;68.20;;;;;;7322343;19;9265;-56
2024/01/06 13:56:38;;;;;;;;;;;17.80;68.10;;;;;;7319963;19;9423;-56
2024/01/06 13:59:07;;;;;;;;;;;17.90;68.00;;;;;;7321188;19;9494;-56
2024/01/06 14:01:39;;;;;;;;;;;17.90;67.90;;;;;;7320178;19;9398;-56
2024/01/06 14:04:08;;;;;;;;;;;17.90;67.90;;;;;;7320701;19;10435;-55
2024/01/06 14:06:39;;;;;;;;;;;18.00;67.90;;;;;;7320950;19;9356;-56
2024/01/06 14:09:08;;;;;;;;;;;17.90;67.80;;;;;;7320438;19;9501;-56
2024/01/06 14:11:37;;;;;;;;;;;17.90;67.70;;;;;;7321010;19;9180;-56
2024/01/06 14:14:06;;;;;;;;;;;17.90;67.70;;;;;;7319710;19;9407;-55
2024/01/06 14:16:41;;;;;;;;;;;17.90;67.70;;;;;;7320997;19;9426;-56
2024/01/06 14:19:10;;;;;;;;;;;17.90;67.60;;;;;;7319236;19;9386;-56
2024/01/06 14:21:39;;;;;;;;;;;17.90;67.60;;;;;;7320583;19;9379;-56
2024/01/06 14:24:09;;;;;;;;;;;17.90;67.60;;;;;;7319932;19;10207;-56
2024/01/06 14:26:40;;;;;;;;;;;17.80;67.50;;;;;;7320952;19;9487;-56
2024/01/06 14:29:09;;;;;;;;;;;17.80;67.50;;;;;;7319432;19;10567;-56
2024/01/06 14:31:40;;;;;;;;;;;17.70;67.50;;;;;;7319295;19;9310;-56
2024/01/06 14:34:09;;;;;;;;;;;17.70;67.60;;;;;;7319052;19;9336;-56
2024/01/06 14:36:38;;;;;;;;;;;17.70;67.70;;;;;;7320327;19;9462;-56
2024/01/06 14:39:07;;;;;;;;;;;17.60;67.60;;;;;;7320541;19;9430;-56
2024/01/06 14:41:36;;;;;;;;;;;17.60;67.70;;;;;;7319750;19;9423;-56
2024/01/06 14:44:28;;;;;;;;;;;17.50;67.70;;;;;;7317422;19;9949;-56
2024/01/06 14:47:19;;;;;;;;;;;17.50;67.80;;;;;;7316842;19;9528;-55
2024/01/06 14:49:48;;;;;;;;;;;17.50;67.90;;;;;;7320355;19;9348;-55